Terminal Aerodrome Forecast
Issued by NWS

Home | Current Version | Previous Version | Text Only | Print | Product List | Glossary On
Versions: 1 2 3 4 5 6 7 8 9 10 11 12 13 14 15 16 17 18 19 20 21 22 23 24 25 26
000
FTUS45 KBOU 042322
TAFAPA
TAF
KAPA 042322Z 0500/0524 17008KT P6SM FEW100 BKN140
     FM050300 VRB05KT P6SM VCSH BKN050 OVC100
     FM050600 21010KT P6SM VCSH SCT050 BKN120
     FM051300 28009KT P6SM FEW060 SCT140
     FM051800 14009KT P6SM FEW220=

USA.gov is the U.S. government's official web portal to all federal, state and local government web resources and services.